Time;durP1;ratioP1;P1;durP2;ratioP2;P2;SDS_P1;SDS_P2;PMS_P1;PMS_P2;Temp;Humidity;BMP_temperature;BMP_pressure;BME280_temperature;BME280_humidity;BME280_pressure;Samples;Min_cycle;Max_cycle;Signal;HPM_P1;HPM_P2
2023/01/26 00:01:18;;;;;;;50.97;23.90;;;1.50;99.90;;;;;;5029890;28;20195;-73
2023/01/26 00:03:45;;;;;;;48.53;22.97;;;1.50;99.90;;;;;;5015826;28;20235;-73
2023/01/26 00:06:50;;;;;;;54.87;23.47;;;1.50;99.90;;;;;;5049307;28;20200;-73
2023/01/26 00:09:17;;;;;;;54.60;23.40;;;1.40;99.90;;;;;;5001233;28;20255;-73
2023/01/26 00:11:50;;;;;;;54.60;23.90;;;1.40;99.90;;;;;;4976034;28;20696;-74
2023/01/26 00:14:18;;;;;;;55.00;25.57;;;1.50;99.90;;;;;;4992015;28;20315;-76
2023/01/26 00:16:47;;;;;;;51.73;23.90;;;1.50;99.90;;;;;;4967455;28;20204;-77
2023/01/26 00:19:14;;;;;;;51.07;23.93;;;1.60;99.90;;;;;;4980376;28;20225;-74
2023/01/26 00:21:41;;;;;;;52.30;24.23;;;1.50;99.90;;;;;;4968039;28;20196;-74
2023/01/26 00:24:08;;;;;;;52.30;24.23;;;1.60;99.90;;;;;;4960771;28;20212;-75
2023/01/26 00:26:35;;;;;;;47.50;23.00;;;1.60;99.90;;;;;;5008426;28;20276;-78
2023/01/26 00:29:04;;;;;;;51.00;23.83;;;1.70;99.90;;;;;;4984912;28;20678;-76
2023/01/26 00:31:34;;;;;;;51.17;23.87;;;1.70;99.90;;;;;;4991932;28;20227;-77
2023/01/26 00:34:10;;;;;;;56.83;25.20;;;1.70;99.90;;;;;;4969133;28;20708;-77
2023/01/26 00:36:37;;;;;;;47.63;23.10;;;1.70;99.90;;;;;;4978442;28;20198;-76
2023/01/26 00:39:04;;;;;;;51.50;24.40;;;1.70;99.90;;;;;;4970292;28;20228;-77
2023/01/26 00:44:16;;;;;;;51.73;23.83;;;1.70;99.90;;;;;;4954702;28;20676;-77
2023/01/26 00:46:43;;;;;;;54.27;24.60;;;1.80;99.90;;;;;;4994001;28;20253;-77
2023/01/26 00:49:10;;;;;;;51.87;23.37;;;1.80;99.90;;;;;;5016476;28;20211;-75
2023/01/26 00:51:37;;;;;;;51.43;23.87;;;1.70;99.90;;;;;;5030463;28;20191;-75
2023/01/26 00:54:04;;;;;;;49.57;23.90;;;1.70;99.90;;;;;;5027675;28;20703;-76
2023/01/26 00:56:31;;;;;;;50.63;23.60;;;1.80;99.90;;;;;;5002842;28;20211;-77
2023/01/26 00:59:06;;;;;;;50.80;23.77;;;1.70;99.90;;;;;;5033934;28;20342;-77
2023/01/26 01:01:34;;;;;;;54.20;24.37;;;1.70;99.90;;;;;;5015787;28;20301;-76
2023/01/26 01:04:00;;;;;;;51.70;24.20;;;1.70;99.90;;;;;;5035022;28;20684;-78
2023/01/26 01:06:28;;;;;;;53.37;24.43;;;1.60;99.90;;;;;;5033547;28;20194;-79
2023/01/26 01:08:55;;;;;;;52.53;24.67;;;1.70;99.90;;;;;;5031675;28;20205;-81
2023/01/26 01:11:21;;;;;;;50.20;23.90;;;1.60;99.90;;;;;;4997638;28;20198;-80
2023/01/26 01:13:49;;;;;;;52.40;24.60;;;1.50;99.90;;;;;;5032285;28;20198;-79
2023/01/26 01:16:16;;;;;;;52.50;24.53;;;1.50;99.90;;;;;;5036069;28;20203;-76
2023/01/26 01:18:44;;;;;;;53.40;23.67;;;1.40;99.90;;;;;;5022713;28;20229;-77
2023/01/26 01:21:14;;;;;;;50.73;23.87;;;1.40;99.90;;;;;;5020866;28;20219;-78
2023/01/26 01:23:42;;;;;;;50.43;24.07;;;1.50;99.90;;;;;;5040744;28;20284;-69
2023/01/26 01:26:09;;;;;;;52.23;24.43;;;1.50;99.90;;;;;;5039989;28;20266;-71
2023/01/26 01:28:37;;;;;;;52.07;24.30;;;1.50;99.90;;;;;;5045441;28;20291;-74
2023/01/26 01:31:15;;;;;;;53.97;24.40;;;1.40;99.90;;;;;;5051584;28;20195;-75
2023/01/26 01:33:42;;;;;;;54.40;24.77;;;1.40;99.90;;;;;;5042063;28;20189;-72
2023/01/26 01:36:13;;;;;;;54.57;24.77;;;1.30;99.90;;;;;;5027605;28;20193;-70
2023/01/26 01:38:41;;;;;;;50.67;24.47;;;1.30;99.90;;;;;;5042942;28;20378;-73
2023/01/26 01:41:09;;;;;;;54.13;23.93;;;1.30;99.90;;;;;;5043955;28;20289;-72
2023/01/26 01:43:36;;;;;;;55.37;24.90;;;1.30;99.90;;;;;;5043723;28;20189;-76
2023/01/26 01:46:19;;;;;;;53.03;24.47;;;1.30;99.90;;;;;;5043559;28;20204;-73
2023/01/26 01:49:02;;;;;;;51.77;24.30;;;1.30;99.90;;;;;;5045926;28;20194;-75
2023/01/26 01:51:37;;;;;;;54.43;24.93;;;1.30;99.90;;;;;;5034858;28;20586;-73
2023/01/26 01:54:10;;;;;;;55.00;24.57;;;1.20;99.90;;;;;;5025624;28;20195;-74
2023/01/26 01:56:41;;;;;;;56.23;25.40;;;1.20;99.90;;;;;;5037655;28;20213;-71
2023/01/26 01:59:10;;;;;;;57.47;24.70;;;1.20;99.90;;;;;;5041462;28;20284;-75
2023/01/26 02:01:37;;;;;;;55.40;24.43;;;1.20;99.90;;;;;;5003484;28;20191;-72
2023/01/26 02:04:06;;;;;;;61.07;26.43;;;1.30;99.90;;;;;;5048785;28;20638;-83
2023/01/26 02:06:53;;;;;;;57.50;25.37;;;1.30;99.90;;;;;;5031077;28;20206;-73
2023/01/26 02:12:21;;;;;;;52.93;24.40;;;1.40;99.90;;;;;;5044538;28;20205;-73
2023/01/26 02:14:50;;;;;;;54.73;24.77;;;1.50;99.90;;;;;;5042035;28;20286;-75
2023/01/26 02:17:17;;;;;;;54.67;25.13;;;1.50;99.90;;;;;;4998214;28;20562;-79
2023/01/26 02:20:03;;;;;;;55.33;25.23;;;1.60;99.90;;;;;;5032336;28;20404;-75
2023/01/26 02:23:14;;;;;;;51.27;24.17;;;1.70;99.90;;;;;;5031423;28;20187;-80
2023/01/26 02:26:05;;;;;;;57.43;25.00;;;1.70;99.90;;;;;;5032163;28;20572;-82
2023/01/26 02:28:32;;;;;;;54.93;25.17;;;1.70;99.90;;;;;;5032167;28;20278;-75
2023/01/26 02:31:00;;;;;;;53.03;24.87;;;1.60;99.90;;;;;;5014332;28;20195;-79
2023/01/26 02:33:29;;;;;;;57.07;24.37;;;1.50;99.90;;;;;;5014518;28;20207;-77
2023/01/26 02:35:56;;;;;;;54.97;24.47;;;1.50;99.90;;;;;;5030605;28;20231;-78
2023/01/26 02:38:27;;;;;;;54.73;25.53;;;1.50;99.90;;;;;;5014167;28;20572;-76
2023/01/26 02:41:03;;;;;;;54.30;24.57;;;1.60;99.90;;;;;;5032204;28;20282;-75
2023/01/26 02:43:30;;;;;;;49.47;23.70;;;1.60;99.90;;;;;;5032002;28;20641;-76
2023/01/26 02:45:57;;;;;;;49.23;23.37;;;1.60;99.90;;;;;;5013764;28;20207;-81
2023/01/26 02:51:10;;;;;;;53.80;24.53;;;1.60;99.90;;;;;;5014386;28;20194;-80
2023/01/26 02:53:37;;;;;;;50.13;22.63;;;1.50;99.90;;;;;;5032174;28;20203;-78
2023/01/26 02:56:04;;;;;;;51.20;23.00;;;1.40;99.90;;;;;;5030554;28;20247;-77
2023/01/26 02:58:31;;;;;;;48.83;23.13;;;1.50;99.90;;;;;;5043113;28;20219;-77
2023/01/26 03:00:58;;;;;;;48.80;23.20;;;1.40;99.90;;;;;;5030710;28;20246;-74
2023/01/26 03:03:40;;;;;;;49.30;23.53;;;1.50;99.90;;;;;;5030558;28;20684;-77
2023/01/26 03:06:09;;;;;;;48.30;22.57;;;1.60;99.90;;;;;;5047229;28;20214;-72
2023/01/26 03:08:38;;;;;;;49.83;22.83;;;1.50;99.90;;;;;;5047227;28;20676;-76
2023/01/26 03:11:06;;;;;;;52.33;22.57;;;1.40;99.90;;;;;;5051176;28;20199;-78
2023/01/26 03:13:33;;;;;;;49.40;22.63;;;1.40;99.90;;;;;;5034466;28;20199;-77
2023/01/26 03:16:05;;;;;;;53.23;23.17;;;1.50;99.90;;;;;;5034075;28;20202;-78
2023/01/26 03:29:39;;;;;;;48.30;21.73;;;1.40;99.90;;;;;;5050899;28;20666;-78
2023/01/26 03:32:06;;;;;;;49.07;22.93;;;1.30;99.90;;;;;;5046209;28;20296;-79
2023/01/26 03:34:33;;;;;;;50.00;22.50;;;1.30;99.90;;;;;;5055229;28;20195;-76
2023/01/26 03:36:59;;;;;;;50.73;23.23;;;1.40;99.90;;;;;;5055130;28;20208;-75
2023/01/26 03:56:17;;;;;;;47.93;21.63;;;1.50;99.90;;;;;;5053475;28;20202;-77
2023/01/26 03:58:44;;;;;;;46.30;21.07;;;1.40;99.90;;;;;;5053573;28;20260;-74
2023/01/26 04:01:25;;;;;;;49.13;22.47;;;1.50;99.90;;;;;;5053741;28;20194;-79
2023/01/26 04:09:31;;;;;;;48.07;21.60;;;1.50;99.90;;;;;;5053358;28;20561;-79
2023/01/26 04:11:58;;;;;;;46.37;20.73;;;1.50;99.90;;;;;;4997157;28;20250;-77
2023/01/26 04:22:50;;;;;;;47.17;21.20;;;1.70;99.90;;;;;;5048936;28;20248;-77
2023/01/26 04:25:20;;;;;;;49.97;21.63;;;1.80;99.90;;;;;;5066644;28;20604;-78
2023/01/26 04:27:47;;;;;;;45.13;20.83;;;1.80;99.90;;;;;;5033363;28;20209;-80
2023/01/26 04:30:16;;;;;;;50.37;21.63;;;1.90;99.90;;;;;;5033214;28;20225;-78
2023/01/26 04:32:45;;;;;;;49.30;21.57;;;1.90;99.90;;;;;;5049484;28;20200;-78
2023/01/26 04:35:12;;;;;;;48.77;22.03;;;1.90;99.90;;;;;;5049433;28;20203;-81
2023/01/26 04:37:39;;;;;;;52.87;22.47;;;1.70;99.90;;;;;;5032949;28;20269;-78
2023/01/26 04:40:07;;;;;;;52.30;22.03;;;1.70;99.90;;;;;;5034154;28;20232;-80
2023/01/26 04:42:34;;;;;;;47.47;21.63;;;1.70;99.90;;;;;;5026842;28;20204;-77
2023/01/26 04:45:01;;;;;;;52.87;23.33;;;1.70;99.90;;;;;;5032583;28;20195;-78
2023/01/26 04:47:27;;;;;;;50.47;22.13;;;1.70;99.90;;;;;;5016103;28;20204;-80
2023/01/26 04:49:55;;;;;;;52.03;23.07;;;1.80;99.90;;;;;;5043432;28;20261;-79
2023/01/26 04:52:22;;;;;;;50.00;21.60;;;1.80;99.90;;;;;;5034001;28;20557;-78
2023/01/26 04:54:48;;;;;;;54.70;23.63;;;1.90;99.90;;;;;;5052181;28;20197;-78
2023/01/26 04:57:19;;;;;;;48.53;21.00;;;1.80;99.90;;;;;;5040374;28;20196;-79
2023/01/26 04:59:46;;;;;;;56.47;21.83;;;1.80;99.90;;;;;;5033087;28;20222;-79
2023/01/26 05:02:12;;;;;;;52.00;22.70;;;1.80;99.90;;;;;;5015593;28;20203;-79
2023/01/26 05:04:39;;;;;;;50.90;21.60;;;1.80;99.90;;;;;;5048738;28;20228;-78
2023/01/26 05:07:06;;;;;;;55.13;23.57;;;1.80;99.90;;;;;;5032411;28;20622;-78
2023/01/26 05:09:33;;;;;;;50.87;23.10;;;1.70;99.90;;;;;;5065256;28;20668;-78
2023/01/26 05:12:32;;;;;;;52.10;23.13;;;1.80;99.90;;;;;;5065546;28;20188;-74
2023/01/26 05:14:46;;;;;;;53.83;22.73;;;1.70;99.90;;;;;;5042601;28;20212;-72
2023/01/26 05:17:13;;;;;;;51.27;22.87;;;1.70;99.90;;;;;;5015727;28;20199;-74
2023/01/26 05:19:40;;;;;;;55.90;23.37;;;1.50;99.90;;;;;;5033280;28;20672;-73
2023/01/26 05:22:07;;;;;;;50.83;23.00;;;1.50;99.90;;;;;;5015384;28;20210;-74
2023/01/26 05:24:36;;;;;;;52.93;23.53;;;1.60;99.90;;;;;;5048433;28;20200;-79
2023/01/26 05:27:24;;;;;;;54.03;23.23;;;1.70;99.90;;;;;;5015492;28;20661;-79
2023/01/26 05:29:52;;;;;;;55.97;23.60;;;1.80;99.90;;;;;;5013154;28;20188;-79
2023/01/26 05:32:19;;;;;;;51.40;22.70;;;1.90;99.90;;;;;;5027858;28;20200;-73
2023/01/26 05:34:45;;;;;;;51.43;22.90;;;1.90;99.90;;;;;;5013388;28;20535;-76
2023/01/26 05:37:12;;;;;;;55.60;23.10;;;1.90;99.90;;;;;;4996282;28;20219;-78
2023/01/26 05:39:41;;;;;;;52.60;22.20;;;1.90;99.90;;;;;;5028838;28;20231;-77
2023/01/26 05:42:10;;;;;;;53.47;23.90;;;1.90;99.90;;;;;;5012624;28;20282;-74
2023/01/26 05:44:37;;;;;;;53.03;22.77;;;1.90;99.90;;;;;;5021592;28;20678;-74
2023/01/26 05:47:08;;;;;;;53.17;22.70;;;1.90;99.90;;;;;;5015251;28;20527;-73
2023/01/26 05:49:37;;;;;;;54.60;23.17;;;1.80;99.90;;;;;;5048088;28;20213;-76
2023/01/26 05:52:14;;;;;;;51.13;22.93;;;1.80;99.90;;;;;;5033157;28;20584;-75
2023/01/26 05:54:41;;;;;;;51.03;22.23;;;1.90;99.90;;;;;;5032806;28;20544;-78
2023/01/26 05:57:08;;;;;;;50.67;23.10;;;1.80;99.90;;;;;;5031651;28;20191;-74
2023/01/26 05:59:51;;;;;;;50.83;22.17;;;1.90;99.90;;;;;;5032554;28;20211;-77
2023/01/26 06:02:20;;;;;;;47.37;21.33;;;2.00;99.90;;;;;;5037164;28;20671;-80
2023/01/26 06:04:47;;;;;;;49.30;21.43;;;1.90;99.90;;;;;;5033451;28;20230;-79
2023/01/26 06:07:14;;;;;;;53.07;22.10;;;1.90;99.90;;;;;;5064691;28;20204;-78
2023/01/26 06:09:41;;;;;;;50.13;21.33;;;1.90;99.90;;;;;;5058305;28;20196;-79
2023/01/26 06:12:18;;;;;;;49.60;21.70;;;1.90;99.90;;;;;;5031456;28;20195;-78
2023/01/26 06:14:46;;;;;;;51.07;22.77;;;1.90;99.90;;;;;;5032072;28;20222;-81
2023/01/26 06:17:15;;;;;;;52.73;22.73;;;1.90;99.90;;;;;;5025935;28;20205;-79
2023/01/26 06:19:42;;;;;;;49.43;21.83;;;1.80;99.90;;;;;;5031961;28;20673;-75
2023/01/26 06:22:11;;;;;;;48.13;21.67;;;1.90;99.90;;;;;;5031769;28;20187;-79
2023/01/26 06:24:38;;;;;;;49.20;21.77;;;1.80;99.90;;;;;;5031227;28;20206;-76
2023/01/26 06:27:10;;;;;;;49.63;21.50;;;1.80;99.90;;;;;;5048017;28;20194;-79
2023/01/26 06:29:37;;;;;;;51.10;21.93;;;1.70;99.90;;;;;;5031250;28;20199;-78
2023/01/26 06:32:04;;;;;;;47.80;21.23;;;1.70;99.90;;;;;;5022296;28;20519;-79
2023/01/26 06:34:32;;;;;;;50.20;22.07;;;1.70;99.90;;;;;;5032644;28;20199;-78
2023/01/26 06:36:59;;;;;;;46.27;20.47;;;1.80;99.90;;;;;;5064665;28;20199;-80
2023/01/26 06:39:26;;;;;;;48.30;21.20;;;1.90;99.90;;;;;;5032399;28;20219;-78
2023/01/26 06:41:53;;;;;;;50.77;21.63;;;1.80;99.90;;;;;;5047598;28;20542;-78
2023/01/26 06:44:19;;;;;;;49.63;20.37;;;1.90;99.90;;;;;;5018037;28;20610;-81
2023/01/26 06:46:47;;;;;;;45.97;20.33;;;1.80;99.90;;;;;;5034987;28;20225;-74
2023/01/26 06:49:15;;;;;;;47.33;20.93;;;1.70;99.90;;;;;;5051653;28;20199;-77
2023/01/26 06:51:42;;;;;;;46.57;21.00;;;1.70;99.90;;;;;;5036341;28;20233;-74
2023/01/26 06:54:11;;;;;;;46.43;20.37;;;1.70;99.90;;;;;;5034761;28;20203;-75
2023/01/26 06:56:38;;;;;;;48.07;20.70;;;1.70;99.90;;;;;;5040190;28;20329;-74
2023/01/26 06:59:05;;;;;;;47.73;20.77;;;1.60;99.90;;;;;;5051671;28;20213;-79
2023/01/26 07:01:35;;;;;;;44.77;19.77;;;1.70;99.90;;;;;;5035016;28;20226;-79
2023/01/26 07:04:02;;;;;;;40.97;19.70;;;1.60;99.90;;;;;;5050112;28;20231;-75
2023/01/26 07:06:29;;;;;;;47.10;20.17;;;1.60;99.90;;;;;;5048263;28;20573;-75
2023/01/26 07:08:56;;;;;;;44.43;19.70;;;1.50;99.90;;;;;;5016128;28;20361;-77
2023/01/26 07:11:28;;;;;;;44.50;19.60;;;1.50;99.90;;;;;;5048205;28;20557;-84
2023/01/26 07:14:00;;;;;;;42.10;19.00;;;1.40;99.90;;;;;;5015694;28;20210;-77
2023/01/26 07:16:29;;;;;;;45.13;19.57;;;1.40;99.90;;;;;;5052846;28;20238;-75
2023/01/26 07:18:59;;;;;;;41.30;18.63;;;1.40;99.90;;;;;;5035689;28;20209;-74
2023/01/26 07:21:29;;;;;;;40.27;18.93;;;1.40;99.90;;;;;;5035666;28;20231;-80
2023/01/26 07:23:56;;;;;;;40.83;18.00;;;1.30;99.90;;;;;;5035686;28;20650;-74
2023/01/26 07:26:23;;;;;;;40.23;18.00;;;1.30;99.90;;;;;;5034488;28;20664;-75
2023/01/26 07:28:50;;;;;;;37.57;16.90;;;1.20;99.90;;;;;;5030890;28;20422;-79
2023/01/26 07:31:17;;;;;;;38.80;16.47;;;1.20;99.90;;;;;;5015547;28;20236;-73
2023/01/26 07:33:44;;;;;;;39.90;17.43;;;1.20;99.90;;;;;;5014317;28;20196;-80
2023/01/26 07:36:11;;;;;;;37.20;16.60;;;1.20;99.90;;;;;;5014827;28;20649;-75
2023/01/26 07:38:38;;;;;;;35.03;15.30;;;1.20;99.90;;;;;;5015321;28;20195;-74
2023/01/26 07:41:07;;;;;;;34.37;15.93;;;1.20;99.90;;;;;;5023519;28;20628;-79
2023/01/26 07:43:35;;;;;;;34.03;15.17;;;1.20;99.90;;;;;;5034980;28;20213;-74
2023/01/26 07:46:03;;;;;;;31.90;15.07;;;1.20;99.90;;;;;;5014674;28;20222;-77
2023/01/26 07:48:40;;;;;;;32.80;15.60;;;1.30;99.90;;;;;;5048168;28;20183;-75
2023/01/26 07:51:09;;;;;;;36.03;15.37;;;1.40;99.90;;;;;;5030818;28;20297;-79
2023/01/26 07:53:38;;;;;;;33.33;14.97;;;1.30;99.90;;;;;;5015853;28;20204;-78
2023/01/26 07:56:13;;;;;;;33.67;15.23;;;1.30;99.90;;;;;;5013185;28;20576;-78
2023/01/26 07:58:41;;;;;;;27.67;13.97;;;1.30;99.90;;;;;;5030834;28;20513;-77
2023/01/26 08:01:12;;;;;;;29.53;14.30;;;1.40;99.90;;;;;;5014871;28;20232;-78
2023/01/26 08:03:40;;;;;;;30.50;13.83;;;1.40;99.90;;;;;;5049850;28;20297;-78
2023/01/26 08:06:08;;;;;;;29.73;13.70;;;1.40;99.90;;;;;;5016672;28;20249;-76
2023/01/26 08:08:40;;;;;;;31.00;14.00;;;1.40;99.90;;;;;;5050328;28;20202;-76
2023/01/26 08:11:09;;;;;;;26.10;13.17;;;1.30;99.90;;;;;;5049835;28;20203;-77
2023/01/26 08:13:36;;;;;;;25.13;12.40;;;1.20;99.90;;;;;;5034618;28;20195;-78
2023/01/26 08:16:08;;;;;;;24.97;12.70;;;1.20;99.90;;;;;;5034336;28;20198;-78
2023/01/26 08:18:35;;;;;;;26.50;12.47;;;1.30;99.90;;;;;;5054989;28;20529;-78
2023/01/26 08:21:12;;;;;;;24.20;12.23;;;1.30;99.90;;;;;;5046759;28;20246;-78
2023/01/26 08:23:39;;;;;;;24.43;12.37;;;1.20;99.90;;;;;;5026313;28;20274;-75
2023/01/26 08:26:10;;;;;;;24.87;12.53;;;1.30;99.90;;;;;;5043856;28;20249;-72
2023/01/26 08:28:38;;;;;;;25.53;12.03;;;1.30;99.90;;;;;;5025004;28;20186;-75
2023/01/26 08:31:10;;;;;;;25.47;12.37;;;1.40;99.90;;;;;;5043559;28;20273;-77
2023/01/26 08:33:38;;;;;;;24.00;11.97;;;1.60;99.90;;;;;;5039876;28;20195;-76
2023/01/26 08:36:09;;;;;;;22.77;12.27;;;1.50;99.90;;;;;;5032950;28;20198;-75
2023/01/26 08:38:46;;;;;;;23.67;11.13;;;1.60;99.90;;;;;;5007923;28;20954;-77
2023/01/26 08:41:14;;;;;;;24.53;11.80;;;1.70;99.90;;;;;;5044225;28;20222;-79
2023/01/26 08:43:41;;;;;;;21.90;10.90;;;1.70;99.90;;;;;;5032339;28;20203;-77
2023/01/26 08:46:08;;;;;;;24.17;11.07;;;1.60;99.90;;;;;;5021973;28;20217;-72
2023/01/26 08:48:36;;;;;;;19.73;10.73;;;1.70;99.90;;;;;;5042156;28;20223;-73
2023/01/26 08:51:04;;;;;;;19.73;10.50;;;1.70;99.90;;;;;;5018984;28;20213;-71
2023/01/26 08:53:32;;;;;;;21.23;10.97;;;1.70;99.90;;;;;;5031096;28;20195;-70
2023/01/26 08:56:07;;;;;;;22.37;11.00;;;1.70;99.90;;;;;;5035812;28;20240;-73
2023/01/26 08:58:35;;;;;;;20.10;10.87;;;1.60;99.90;;;;;;5043291;28;20196;-68
2023/01/26 09:01:07;;;;;;;19.17;9.97;;;1.60;99.90;;;;;;5026552;28;20316;-76
2023/01/26 09:03:35;;;;;;;20.77;10.77;;;1.70;99.90;;;;;;5019814;28;20220;-81
2023/01/26 09:06:03;;;;;;;23.77;10.37;;;1.70;99.90;;;;;;5027514;28;20209;-74
2023/01/26 09:08:31;;;;;;;18.77;10.50;;;1.80;99.90;;;;;;5052541;28;20263;-78
2023/01/26 09:10:58;;;;;;;20.23;10.47;;;1.50;99.90;;;;;;5053825;28;20189;-79
2023/01/26 09:13:25;;;;;;;19.77;10.30;;;1.50;99.90;;;;;;5052174;28;20214;-79
2023/01/26 09:15:52;;;;;;;19.60;10.53;;;1.60;99.90;;;;;;5035346;28;20198;-72
2023/01/26 09:18:19;;;;;;;17.80;10.13;;;1.50;99.90;;;;;;5052051;28;20285;-77
2023/01/26 09:20:46;;;;;;;19.43;9.97;;;1.50;99.90;;;;;;5053230;28;20219;-69
2023/01/26 09:23:15;;;;;;;19.37;10.40;;;1.60;99.90;;;;;;5035511;28;20194;-75
2023/01/26 09:25:41;;;;;;;19.87;10.27;;;1.60;99.90;;;;;;5019764;28;20677;-68
2023/01/26 09:28:08;;;;;;;19.33;10.23;;;1.50;99.90;;;;;;5037738;28;20284;-68
2023/01/26 09:30:35;;;;;;;17.77;9.87;;;1.50;99.90;;;;;;5052987;28;20281;-74
2023/01/26 09:33:04;;;;;;;17.40;10.00;;;1.50;99.90;;;;;;5052982;28;20194;-72
2023/01/26 09:35:32;;;;;;;17.07;9.97;;;1.50;99.90;;;;;;5035211;28;20294;-72
2023/01/26 09:37:59;;;;;;;17.50;9.80;;;1.50;99.90;;;;;;5051630;28;20261;-81
2023/01/26 09:40:43;;;;;;;18.67;9.50;;;1.50;99.90;;;;;;5053065;28;20244;-79
2023/01/26 09:43:22;;;;;;;17.10;10.17;;;1.50;99.90;;;;;;5029176;28;20241;-81
2023/01/26 09:46:05;;;;;;;15.67;9.40;;;1.70;99.90;;;;;;5035504;28;20217;-79
2023/01/26 09:49:03;;;;;;;16.27;9.20;;;1.60;99.90;;;;;;5030252;28;20202;-79
2023/01/26 09:51:45;;;;;;;17.60;10.10;;;1.60;99.90;;;;;;5045489;28;20195;-79
2023/01/26 09:54:32;;;;;;;16.43;9.87;;;1.70;99.90;;;;;;5047517;28;20249;-78
2023/01/26 09:57:09;;;;;;;15.50;9.50;;;1.70;99.90;;;;;;5032842;28;20210;-80
2023/01/26 09:59:49;;;;;;;16.60;9.50;;;1.60;99.90;;;;;;5052114;28;20198;-78
2023/01/26 10:02:47;;;;;;;18.37;9.73;;;1.70;99.90;;;;;;5023955;28;20234;-78
2023/01/26 10:05:27;;;;;;;20.53;10.13;;;1.80;99.90;;;;;;5011181;28;20596;-79
2023/01/26 10:07:54;;;;;;;15.70;9.17;;;1.90;99.90;;;;;;4994831;28;20204;-79
2023/01/26 10:10:29;;;;;;;15.17;9.20;;;1.80;99.90;;;;;;5012294;28;20208;-78
2023/01/26 10:13:06;;;;;;;;;;;;;;;;;;;;;
2023/01/26 10:15:41;;;;;;;19.73;10.43;;;1.80;99.90;;;;;;4994862;28;20841;-78
2023/01/26 10:18:16;;;;;;;17.00;9.87;;;1.90;99.90;;;;;;4991872;28;20194;-79
2023/01/26 10:20:50;;;;;;;15.43;9.30;;;1.90;99.90;;;;;;5011775;28;20206;-82
2023/01/26 10:23:25;;;;;;;16.97;9.20;;;2.00;99.90;;;;;;4993972;28;20200;-77
2023/01/26 10:25:55;;;;;;;15.13;8.80;;;2.10;99.90;;;;;;4993850;28;20203;-78
2023/01/26 10:28:28;;;;;;;16.53;9.07;;;1.90;99.90;;;;;;5011614;28;20200;-81
2023/01/26 10:30:56;;;;;;;15.70;8.80;;;1.90;99.90;;;;;;5012571;28;20274;-80
2023/01/26 10:33:26;;;;;;;16.40;9.03;;;1.90;99.90;;;;;;4994453;28;20200;-79
2023/01/26 10:35:53;;;;;;;16.73;8.87;;;1.90;99.90;;;;;;5026806;28;20189;-77
2023/01/26 10:38:28;;;;;;;17.03;9.20;;;1.90;99.90;;;;;;4994595;28;20196;-78
2023/01/26 10:40:59;;;;;;;16.50;9.27;;;2.00;99.90;;;;;;4994805;28;20246;-74
2023/01/26 10:43:27;;;;;;;17.23;9.50;;;2.10;99.90;;;;;;5009662;28;20207;-78
2023/01/26 10:45:54;;;;;;;17.63;9.53;;;2.00;99.90;;;;;;5009959;28;20571;-78
2023/01/26 10:48:25;;;;;;;17.33;9.33;;;2.00;99.90;;;;;;4992535;28;20247;-79
2023/01/26 10:50:53;;;;;;;17.00;9.77;;;1.90;99.90;;;;;;5029891;28;20650;-77
2023/01/26 10:53:28;;;;;;;17.73;9.20;;;1.90;99.90;;;;;;4995183;28;21345;-77
2023/01/26 10:56:05;;;;;;;17.73;9.80;;;1.70;99.90;;;;;;5007213;28;20294;-76
2023/01/26 10:58:53;;;;;;;17.30;8.97;;;1.70;99.90;;;;;;4998583;28;20200;-82
2023/01/26 11:01:22;;;;;;;16.07;9.63;;;1.80;99.90;;;;;;5010059;28;20220;-83
2023/01/26 11:04:03;;;;;;;17.17;9.87;;;1.90;99.90;;;;;;5016616;28;20967;-76
2023/01/26 11:06:31;;;;;;;18.10;10.00;;;1.90;99.90;;;;;;5015929;28;20202;-77
2023/01/26 11:09:31;;;;;;;16.50;9.03;;;2.00;99.90;;;;;;5029276;28;20203;-79
2023/01/26 11:12:04;;;;;;;18.77;9.80;;;2.00;99.90;;;;;;5004942;28;20207;-73
2023/01/26 11:14:32;;;;;;;16.17;9.57;;;1.90;99.90;;;;;;5007940;28;20207;-78
2023/01/26 11:17:20;;;;;;;16.70;9.47;;;2.00;99.90;;;;;;5008081;28;20203;-79
2023/01/26 11:20:10;;;;;;;17.53;9.77;;;2.10;99.90;;;;;;5008558;28;20203;-78
2023/01/26 11:22:47;;;;;;;15.60;9.33;;;2.00;99.90;;;;;;5012249;28;20221;-75
2023/01/26 11:25:27;;;;;;;16.57;10.00;;;2.10;99.90;;;;;;5013078;28;20196;-80
2023/01/26 11:28:28;;;;;;;18.70;10.13;;;2.00;99.90;;;;;;5029588;28;20203;-83
2023/01/26 11:31:06;;;;;;;15.87;9.60;;;2.10;99.90;;;;;;5015029;28;20203;-81
2023/01/26 11:34:00;;;;;;;17.83;9.70;;;2.10;99.90;;;;;;5020904;28;20196;-81
2023/01/26 11:37:05;;;;;;;17.57;10.00;;;2.10;99.90;;;;;;5016816;28;20201;-84
2023/01/26 11:39:56;;;;;;;17.13;9.77;;;2.10;99.90;;;;;;5002281;28;20212;-75
2023/01/26 11:43:07;;;;;;;20.17;10.70;;;2.10;99.90;;;;;;4947116;28;20234;-74
2023/01/26 11:45:53;;;;;;;18.43;10.73;;;2.20;99.90;;;;;;4964203;28;20225;-74
2023/01/26 11:49:05;;;;;;;18.17;9.83;;;2.20;99.90;;;;;;4976361;28;20228;-78
2023/01/26 11:51:54;;;;;;;19.13;10.37;;;2.20;99.90;;;;;;4982648;28;20267;-78
2023/01/26 11:54:40;;;;;;;18.93;10.40;;;2.10;99.90;;;;;;4984940;28;20210;-79
2023/01/26 11:57:26;;;;;;;20.03;11.47;;;2.10;99.90;;;;;;4987392;28;20228;-75
2023/01/26 12:00:02;;;;;;;21.33;11.17;;;2.10;99.90;;;;;;4983090;28;20295;-78
2023/01/26 12:02:35;;;;;;;20.67;10.60;;;2.20;99.90;;;;;;4955068;28;20318;-78
2023/01/26 12:05:18;;;;;;;22.67;11.40;;;2.20;99.90;;;;;;4969944;28;20796;-78
2023/01/26 12:08:13;;;;;;;21.40;11.83;;;2.30;99.90;;;;;;4984844;28;20200;-86
2023/01/26 12:11:22;;;;;;;25.23;11.80;;;2.30;99.90;;;;;;4986025;28;20236;-78
2023/01/26 12:14:14;;;;;;;22.17;11.27;;;2.30;99.90;;;;;;4966823;28;20236;-77
2023/01/26 12:16:41;;;;;;;21.07;10.87;;;2.20;99.90;;;;;;4984315;28;20209;-74
2023/01/26 12:19:16;;;;;;;25.53;11.40;;;2.10;99.90;;;;;;4975547;28;20212;-77
2023/01/26 12:21:44;;;;;;;22.33;11.70;;;2.00;99.90;;;;;;5001484;28;20234;-69
2023/01/26 12:24:34;;;;;;;21.90;10.90;;;1.90;99.90;;;;;;5000646;28;20197;-70
2023/01/26 12:27:37;;;;;;;18.87;10.80;;;1.80;99.90;;;;;;5001637;28;20185;-67
2023/01/26 12:30:30;;;;;;;26.13;11.23;;;1.80;99.90;;;;;;5035490;28;20206;-70
2023/01/26 12:32:57;;;;;;;23.83;11.37;;;1.80;99.90;;;;;;5028239;28;20270;-68
2023/01/26 12:35:56;;;;;;;24.73;11.53;;;1.90;99.90;;;;;;5012301;28;20573;-67
2023/01/26 12:38:30;;;;;;;29.50;12.07;;;2.00;99.90;;;;;;4995523;28;20281;-66
2023/01/26 12:41:10;;;;;;;29.60;12.70;;;2.00;99.90;;;;;;5013659;28;20196;-68
2023/01/26 12:43:45;;;;;;;28.90;12.37;;;2.00;99.90;;;;;;4996808;28;20898;-66
2023/01/26 12:46:13;;;;;;;29.10;12.00;;;2.10;99.90;;;;;;5029291;28;20739;-67
2023/01/26 12:48:46;;;;;;;28.73;12.23;;;2.00;99.90;;;;;;5029046;28;20200;-69
2023/01/26 12:51:22;;;;;;;30.17;12.13;;;2.00;99.90;;;;;;5029057;28;20640;-70
2023/01/26 12:54:03;;;;;;;29.27;12.73;;;2.00;99.90;;;;;;4996132;28;20198;-70
2023/01/26 12:56:39;;;;;;;27.23;12.07;;;2.00;99.90;;;;;;5029569;28;20211;-69
2023/01/26 12:59:24;;;;;;;27.57;12.37;;;2.20;99.90;;;;;;5010768;28;20198;-68
2023/01/26 13:02:14;;;;;;;27.00;12.20;;;2.20;99.90;;;;;;5019282;28;20689;-69
2023/01/26 13:04:43;;;;;;;23.13;12.10;;;2.10;99.90;;;;;;5007766;28;20270;-69
2023/01/26 13:07:34;;;;;;;23.77;12.20;;;1.90;99.90;;;;;;5028706;28;20206;-70
2023/01/26 13:10:14;;;;;;;27.50;12.43;;;1.90;99.90;;;;;;5017567;28;20209;-68
2023/01/26 13:12:55;;;;;;;24.50;11.47;;;1.90;99.90;;;;;;5066050;28;20293;-73
2023/01/26 13:15:31;;;;;;;25.30;12.63;;;1.70;99.90;;;;;;5064488;28;20225;-73
2023/01/26 13:18:00;;;;;;;28.93;13.10;;;1.80;99.90;;;;;;5031797;28;20203;-75
2023/01/26 13:20:44;;;;;;;28.63;12.73;;;1.80;99.90;;;;;;5032378;28;20229;-70
2023/01/26 13:23:40;;;;;;;25.83;12.67;;;1.70;99.90;;;;;;5048398;28;20309;-70
2023/01/26 13:26:13;;;;;;;25.07;12.17;;;1.60;99.90;;;;;;5012185;28;20214;-71
2023/01/26 13:28:41;;;;;;;26.13;12.30;;;1.60;99.90;;;;;;5046497;28;20230;-68
2023/01/26 13:31:09;;;;;;;28.27;12.90;;;1.60;99.90;;;;;;5050323;28;21518;-68
2023/01/26 13:33:37;;;;;;;26.30;12.70;;;1.50;99.90;;;;;;5032954;28;20221;-68
2023/01/26 13:36:15;;;;;;;29.53;13.33;;;1.50;99.90;;;;;;5062477;28;20659;-69
2023/01/26 13:38:54;;;;;;;27.13;12.63;;;1.60;99.90;;;;;;5054171;28;20221;-72
2023/01/26 13:41:21;;;;;;;25.57;12.67;;;1.60;99.90;;;;;;5030857;28;20241;-69
2023/01/26 13:44:13;;;;;;;25.43;12.27;;;1.60;99.90;;;;;;5033078;28;20704;-73
2023/01/26 13:46:52;;;;;;;27.63;13.17;;;1.60;99.90;;;;;;5024964;28;20198;-78
2023/01/26 13:49:25;;;;;;;27.17;13.10;;;1.60;99.90;;;;;;5032324;28;20195;-81
2023/01/26 13:51:52;;;;;;;26.80;12.30;;;1.70;99.90;;;;;;5032881;28;20210;-77
2023/01/26 13:54:26;;;;;;;26.97;13.10;;;1.70;99.90;;;;;;5031046;28;20206;-78
2023/01/26 13:57:02;;;;;;;27.80;12.77;;;1.60;99.90;;;;;;5032878;28;20222;-75